Bario Airport


Codes: WBGZ/BBN
Name: Bario Airport
City: Bario
Country: Malaysia
Elevation: 3350 ft.
Wikipedia:

Photos at Bario Airport


   Photos courtesy of SpottingLog. You can add your own sightings and photos by signing up for a free trial today.



No photos found.

Weather at Bario Airport


Time (UTC)DescriptionTempratureWindCloud coverageVisibilityPressureHumidity
23-May-2024 21:00Overcast Clouds19°C2 mph, E97%10000m1011hPa99%
24-May-2024 00:00Overcast Clouds20°C0 mph, SE98%10000m1012hPa95%
24-May-2024 03:00Light Rain27°C2 mph, S100%10000m1011hPa62%
24-May-2024 06:00Light Rain25°C2 mph, NW100%10000m1009hPa87%
24-May-2024 09:00Moderate Rain23°C0 mph, NW100%10000m1008hPa96%
24-May-2024 12:00Light Rain20°C0 mph, E100%10000m1011hPa98%
24-May-2024 15:00Light Rain19°C2 mph, E92%10000m1013hPa98%
24-May-2024 18:00Overcast Clouds19°C2 mph, E96%10000m1012hPa99%
24-May-2024 21:00Overcast Clouds18°C2 mph, E91%10000m1011hPa99%
25-May-2024 00:00Overcast Clouds22°C0 mph, E91%10000m1013hPa93%
25-May-2024 03:00Light Rain29°C0 mph, S100%10000m1010hPa55%
25-May-2024 06:00Light Rain26°C4 mph, W100%10000m1009hPa76%
25-May-2024 09:00Light Rain23°C2 mph, NW93%8045m1009hPa95%
25-May-2024 12:00Light Rain20°C0 mph, NW92%10000m1012hPa98%
25-May-2024 15:00Light Rain19°C2 mph, NE98%10000m1013hPa98%
25-May-2024 18:00Light Rain19°C2 mph, SE99%10000m1012hPa99%
25-May-2024 21:00Overcast Clouds19°C0 mph, E100%10000m1012hPa99%
26-May-2024 00:00Overcast Clouds21°C0 mph, NE99%10000m1013hPa94%
26-May-2024 03:00Light Rain25°C2 mph, SW97%10000m1012hPa77%
26-May-2024 06:00Moderate Rain25°C0 mph, NW98%8670m1009hPa86%
26-May-2024 09:00Moderate Rain23°C0 mph, NW100%4310m1009hPa97%
26-May-2024 12:00Moderate Rain20°C2 mph, NW100%5929m1012hPa99%
26-May-2024 15:00Moderate Rain20°C0 mph, N100%5600m1013hPa99%
26-May-2024 18:00Moderate Rain20°C0 mph, N100%10000m1012hPa100%
26-May-2024 21:00Light Rain19°C0 mph, NW98%10000m1011hPa99%
27-May-2024 00:00Light Rain21°C0 mph, N98%3342m1013hPa97%
27-May-2024 03:00Light Rain23°C2 mph, W98%7538m1012hPa94%
27-May-2024 06:00Moderate Rain22°C2 mph, W99%5854m1010hPa98%
27-May-2024 09:00Moderate Rain21°C2 mph, W100%6613m1010hPa99%
27-May-2024 12:00Heavy Intensity Rain20°C2 mph, N100%0m1012hPa100%
27-May-2024 15:00Heavy Intensity Rain20°C2 mph, W100%1120m1013hPa100%
27-May-2024 18:00Light Rain19°C2 mph, W100%685m1012hPa100%
27-May-2024 21:00Light Rain19°C2 mph, SW100%2115m1012hPa100%
28-May-2024 00:00Light Rain19°C2 mph, SW100%10000m1013hPa99%
28-May-2024 03:00Light Rain21°C2 mph, SW100%10000m1013hPa91%
28-May-2024 06:00Light Rain21°C2 mph, SW99%10000m1011hPa97%
28-May-2024 09:00Light Rain20°C2 mph, SW100%10000m1011hPa99%
28-May-2024 12:00Light Rain19°C2 mph, W100%10000m1013hPa99%
28-May-2024 15:00Overcast Clouds18°C0 mph, W100%10000m1013hPa99%
28-May-2024 18:00Overcast Clouds18°C0 mph, SW99%10000m1011hPa98%